sensor_id;sensor_type;location;lat;lon;timestamp;P1;durP1;ratioP1;P2;durP2;ratioP2
15256;SDS011;7731;50.720;6.912;2023-02-28T00:00:45;6.57;;;3.27;;
15256;SDS011;7731;50.720;6.912;2023-02-28T00:03:17;5.03;;;2.70;;
15256;SDS011;7731;50.720;6.912;2023-02-28T00:05:48;4.30;;;2.60;;
15256;SDS011;7731;50.720;6.912;2023-02-28T00:08:18;3.37;;;2.50;;
15256;SDS011;7731;50.720;6.912;2023-02-28T00:10:48;5.87;;;2.53;;
15256;SDS011;7731;50.720;6.912;2023-02-28T00:13:18;4.10;;;2.87;;
15256;SDS011;7731;50.720;6.912;2023-02-28T00:15:57;3.50;;;2.47;;
15256;SDS011;7731;50.720;6.912;2023-02-28T00:18:32;3.60;;;2.50;;
15256;SDS011;7731;50.720;6.912;2023-02-28T00:21:02;5.30;;;2.93;;
15256;SDS011;7731;50.720;6.912;2023-02-28T00:23:34;4.80;;;3.03;;
15256;SDS011;7731;50.720;6.912;2023-02-28T00:26:05;7.00;;;3.50;;
15256;SDS011;7731;50.720;6.912;2023-02-28T00:28:35;7.23;;;3.37;;
15256;SDS011;7731;50.720;6.912;2023-02-28T00:31:05;9.03;;;3.23;;
15256;SDS011;7731;50.720;6.912;2023-02-28T00:33:38;4.70;;;2.60;;
15256;SDS011;7731;50.720;6.912;2023-02-28T00:36:09;4.53;;;2.90;;
15256;SDS011;7731;50.720;6.912;2023-02-28T00:38:41;6.53;;;2.67;;
15256;SDS011;7731;50.720;6.912;2023-02-28T00:41:11;5.53;;;2.83;;
15256;SDS011;7731;50.720;6.912;2023-02-28T00:43:41;3.67;;;3.13;;
15256;SDS011;7731;50.720;6.912;2023-02-28T00:46:12;7.27;;;2.90;;
15256;SDS011;7731;50.720;6.912;2023-02-28T00:48:45;2.73;;;2.17;;
15256;SDS011;7731;50.720;6.912;2023-02-28T00:51:16;4.53;;;2.77;;
15256;SDS011;7731;50.720;6.912;2023-02-28T00:53:46;4.07;;;2.53;;
15256;SDS011;7731;50.720;6.912;2023-02-28T00:56:16;4.37;;;3.00;;
15256;SDS011;7731;50.720;6.912;2023-02-28T00:58:49;9.70;;;2.93;;
15256;SDS011;7731;50.720;6.912;2023-02-28T01:01:21;9.60;;;3.30;;
15256;SDS011;7731;50.720;6.912;2023-02-28T01:03:54;5.43;;;3.20;;
15256;SDS011;7731;50.720;6.912;2023-02-28T01:06:24;6.80;;;3.17;;
15256;SDS011;7731;50.720;6.912;2023-02-28T01:08:55;6.93;;;3.20;;
15256;SDS011;7731;50.720;6.912;2023-02-28T01:11:25;4.73;;;3.43;;
15256;SDS011;7731;50.720;6.912;2023-02-28T01:13:57;5.63;;;2.97;;
15256;SDS011;7731;50.720;6.912;2023-02-28T01:16:28;6.73;;;3.03;;
15256;SDS011;7731;50.720;6.912;2023-02-28T01:19:02;5.07;;;2.83;;
15256;SDS011;7731;50.720;6.912;2023-02-28T01:21:32;4.20;;;2.67;;
15256;SDS011;7731;50.720;6.912;2023-02-28T01:24:02;5.70;;;2.90;;
15256;SDS011;7731;50.720;6.912;2023-02-28T01:26:34;6.03;;;3.40;;
15256;SDS011;7731;50.720;6.912;2023-02-28T01:29:04;6.40;;;2.93;;
15256;SDS011;7731;50.720;6.912;2023-02-28T01:31:36;5.23;;;2.67;;
15256;SDS011;7731;50.720;6.912;2023-02-28T01:34:09;3.83;;;2.80;;
15256;SDS011;7731;50.720;6.912;2023-02-28T01:36:39;4.60;;;2.70;;
15256;SDS011;7731;50.720;6.912;2023-02-28T01:39:09;4.33;;;3.00;;
15256;SDS011;7731;50.720;6.912;2023-02-28T01:41:39;3.27;;;2.43;;
15256;SDS011;7731;50.720;6.912;2023-02-28T01:47:40;3.53;;;2.73;;
15256;SDS011;7731;50.720;6.912;2023-02-28T01:50:16;4.20;;;3.27;;
15256;SDS011;7731;50.720;6.912;2023-02-28T01:52:53;4.50;;;3.00;;
15256;SDS011;7731;50.720;6.912;2023-02-28T01:55:29;3.47;;;2.60;;
15256;SDS011;7731;50.720;6.912;2023-02-28T01:58:02;3.00;;;2.57;;
15256;SDS011;7731;50.720;6.912;2023-02-28T02:00:36;3.40;;;2.63;;
15256;SDS011;7731;50.720;6.912;2023-02-28T02:03:09;4.27;;;2.80;;
15256;SDS011;7731;50.720;6.912;2023-02-28T02:05:50;5.13;;;2.57;;
15256;SDS011;7731;50.720;6.912;2023-02-28T02:08:21;5.03;;;2.50;;
15256;SDS011;7731;50.720;6.912;2023-02-28T02:10:56;6.43;;;2.33;;
15256;SDS011;7731;50.720;6.912;2023-02-28T02:13:34;3.47;;;2.40;;
15256;SDS011;7731;50.720;6.912;2023-02-28T02:16:33;3.50;;;2.40;;
15256;SDS011;7731;50.720;6.912;2023-02-28T02:19:25;3.03;;;2.50;;
15256;SDS011;7731;50.720;6.912;2023-02-28T02:26:19;3.37;;;2.80;;
15256;SDS011;7731;50.720;6.912;2023-02-28T02:29:24;4.80;;;2.80;;
15256;SDS011;7731;50.720;6.912;2023-02-28T02:33:02;5.30;;;3.03;;
15256;SDS011;7731;50.720;6.912;2023-02-28T02:36:21;7.03;;;3.07;;
15256;SDS011;7731;50.720;6.912;2023-02-28T02:38:58;5.40;;;2.70;;
15256;SDS011;7731;50.720;6.912;2023-02-28T02:41:37;3.97;;;2.87;;
15256;SDS011;7731;50.720;6.912;2023-02-28T02:44:18;3.97;;;3.00;;
15256;SDS011;7731;50.720;6.912;2023-02-28T02:46:58;4.47;;;3.27;;
15256;SDS011;7731;50.720;6.912;2023-02-28T02:49:36;4.63;;;2.60;;
15256;SDS011;7731;50.720;6.912;2023-02-28T02:52:15;6.20;;;2.53;;
15256;SDS011;7731;50.720;6.912;2023-02-28T02:54:54;7.80;;;4.10;;
15256;SDS011;7731;50.720;6.912;2023-02-28T02:57:30;12.80;;;6.17;;
15256;SDS011;7731;50.720;6.912;2023-02-28T03:00:08;13.63;;;7.30;;
15256;SDS011;7731;50.720;6.912;2023-02-28T03:02:41;19.70;;;9.27;;
15256;SDS011;7731;50.720;6.912;2023-02-28T03:05:17;16.67;;;9.67;;
15256;SDS011;7731;50.720;6.912;2023-02-28T03:07:55;10.70;;;6.17;;
15256;SDS011;7731;50.720;6.912;2023-02-28T03:10:36;5.00;;;3.50;;
15256;SDS011;7731;50.720;6.912;2023-02-28T03:13:27;6.63;;;3.27;;
15256;SDS011;7731;50.720;6.912;2023-02-28T03:16:51;3.50;;;2.83;;
15256;SDS011;7731;50.720;6.912;2023-02-28T03:19:51;3.37;;;2.93;;
15256;SDS011;7731;50.720;6.912;2023-02-28T03:22:45;5.47;;;2.87;;
15256;SDS011;7731;50.720;6.912;2023-02-28T03:25:32;5.70;;;2.93;;
15256;SDS011;7731;50.720;6.912;2023-02-28T03:28:13;4.70;;;2.50;;
15256;SDS011;7731;50.720;6.912;2023-02-28T03:30:51;3.80;;;2.30;;
15256;SDS011;7731;50.720;6.912;2023-02-28T03:33:30;2.90;;;2.30;;
15256;SDS011;7731;50.720;6.912;2023-02-28T03:36:11;4.90;;;2.50;;
15256;SDS011;7731;50.720;6.912;2023-02-28T03:38:47;3.43;;;2.27;;
15256;SDS011;7731;50.720;6.912;2023-02-28T03:41:27;3.80;;;2.37;;
15256;SDS011;7731;50.720;6.912;2023-02-28T03:44:09;2.80;;;2.30;;
15256;SDS011;7731;50.720;6.912;2023-02-28T03:46:46;2.83;;;2.23;;
15256;SDS011;7731;50.720;6.912;2023-02-28T03:49:27;5.20;;;2.60;;
15256;SDS011;7731;50.720;6.912;2023-02-28T03:52:04;3.13;;;2.10;;
15256;SDS011;7731;50.720;6.912;2023-02-28T03:54:39;3.20;;;2.00;;
15256;SDS011;7731;50.720;6.912;2023-02-28T03:57:18;4.13;;;2.40;;
15256;SDS011;7731;50.720;6.912;2023-02-28T04:00:03;2.90;;;2.43;;
15256;SDS011;7731;50.720;6.912;2023-02-28T04:02:39;3.40;;;2.20;;
15256;SDS011;7731;50.720;6.912;2023-02-28T04:05:10;3.33;;;2.23;;
15256;SDS011;7731;50.720;6.912;2023-02-28T04:07:40;3.93;;;2.23;;
15256;SDS011;7731;50.720;6.912;2023-02-28T04:10:11;3.03;;;2.17;;
15256;SDS011;7731;50.720;6.912;2023-02-28T04:12:46;4.10;;;2.50;;
15256;SDS011;7731;50.720;6.912;2023-02-28T04:15:16;4.43;;;2.27;;
15256;SDS011;7731;50.720;6.912;2023-02-28T04:17:51;3.73;;;2.13;;
15256;SDS011;7731;50.720;6.912;2023-02-28T04:20:21;2.53;;;2.20;;
15256;SDS011;7731;50.720;6.912;2023-02-28T04:22:51;3.40;;;2.37;;
15256;SDS011;7731;50.720;6.912;2023-02-28T04:25:21;2.83;;;1.87;;
15256;SDS011;7731;50.720;6.912;2023-02-28T04:27:54;3.23;;;2.27;;
15256;SDS011;7731;50.720;6.912;2023-02-28T04:30:24;2.73;;;2.33;;
15256;SDS011;7731;50.720;6.912;2023-02-28T04:32:55;3.20;;;2.00;;
15256;SDS011;7731;50.720;6.912;2023-02-28T04:35:26;3.00;;;2.67;;
15256;SDS011;7731;50.720;6.912;2023-02-28T04:37:58;4.83;;;2.50;;
15256;SDS011;7731;50.720;6.912;2023-02-28T04:40:28;2.60;;;2.00;;
15256;SDS011;7731;50.720;6.912;2023-02-28T04:43:02;4.43;;;2.40;;
15256;SDS011;7731;50.720;6.912;2023-02-28T04:45:33;5.67;;;2.67;;
15256;SDS011;7731;50.720;6.912;2023-02-28T04:48:04;3.80;;;2.30;;
15256;SDS011;7731;50.720;6.912;2023-02-28T04:50:34;3.73;;;2.73;;
15256;SDS011;7731;50.720;6.912;2023-02-28T04:53:04;5.40;;;3.00;;
15256;SDS011;7731;50.720;6.912;2023-02-28T04:55:34;3.80;;;2.43;;
15256;SDS011;7731;50.720;6.912;2023-02-28T04:58:08;4.03;;;2.70;;
15256;SDS011;7731;50.720;6.912;2023-02-28T05:00:39;3.83;;;2.30;;
15256;SDS011;7731;50.720;6.912;2023-02-28T05:03:09;3.50;;;2.47;;
15256;SDS011;7731;50.720;6.912;2023-02-28T05:05:40;2.83;;;2.27;;
15256;SDS011;7731;50.720;6.912;2023-02-28T05:08:10;3.17;;;2.33;;
15256;SDS011;7731;50.720;6.912;2023-02-28T05:10:40;4.37;;;2.63;;
15256;SDS011;7731;50.720;6.912;2023-02-28T05:13:13;4.73;;;2.57;;
15256;SDS011;7731;50.720;6.912;2023-02-28T05:15:43;4.77;;;2.43;;
15256;SDS011;7731;50.720;6.912;2023-02-28T05:18:14;2.90;;;2.47;;
15256;SDS011;7731;50.720;6.912;2023-02-28T05:20:44;3.10;;;2.40;;
15256;SDS011;7731;50.720;6.912;2023-02-28T05:23:14;10.23;;;6.13;;
15256;SDS011;7731;50.720;6.912;2023-02-28T05:25:48;4.53;;;2.80;;
15256;SDS011;7731;50.720;6.912;2023-02-28T05:28:21;5.33;;;2.90;;
15256;SDS011;7731;50.720;6.912;2023-02-28T05:30:52;4.77;;;2.80;;
15256;SDS011;7731;50.720;6.912;2023-02-28T05:33:23;3.10;;;2.43;;
15256;SDS011;7731;50.720;6.912;2023-02-28T05:35:53;4.37;;;2.40;;
15256;SDS011;7731;50.720;6.912;2023-02-28T05:38:23;5.57;;;2.60;;
15256;SDS011;7731;50.720;6.912;2023-02-28T05:40:53;6.47;;;3.10;;
15256;SDS011;7731;50.720;6.912;2023-02-28T05:43:26;7.63;;;4.00;;
15256;SDS011;7731;50.720;6.912;2023-02-28T05:45:57;9.10;;;3.97;;
15256;SDS011;7731;50.720;6.912;2023-02-28T05:48:27;7.13;;;3.27;;
15256;SDS011;7731;50.720;6.912;2023-02-28T05:50:57;4.40;;;2.70;;
15256;SDS011;7731;50.720;6.912;2023-02-28T05:53:29;3.27;;;2.40;;
15256;SDS011;7731;50.720;6.912;2023-02-28T05:56:00;3.77;;;2.60;;
15256;SDS011;7731;50.720;6.912;2023-02-28T05:58:33;2.80;;;2.23;;
15256;SDS011;7731;50.720;6.912;2023-02-28T06:01:19;4.80;;;2.77;;
15256;SDS011;7731;50.720;6.912;2023-02-28T06:03:53;4.40;;;2.90;;
15256;SDS011;7731;50.720;6.912;2023-02-28T06:06:27;3.10;;;2.60;;
15256;SDS011;7731;50.720;6.912;2023-02-28T06:09:02;3.93;;;2.83;;
15256;SDS011;7731;50.720;6.912;2023-02-28T06:11:33;4.00;;;3.10;;
15256;SDS011;7731;50.720;6.912;2023-02-28T06:14:09;3.20;;;2.90;;
15256;SDS011;7731;50.720;6.912;2023-02-28T06:16:46;5.07;;;3.00;;
15256;SDS011;7731;50.720;6.912;2023-02-28T06:19:17;3.20;;;2.90;;
15256;SDS011;7731;50.720;6.912;2023-02-28T06:21:49;3.90;;;3.23;;
15256;SDS011;7731;50.720;6.912;2023-02-28T06:24:21;3.20;;;2.90;;
15256;SDS011;7731;50.720;6.912;2023-02-28T06:26:54;3.33;;;2.97;;
15256;SDS011;7731;50.720;6.912;2023-02-28T06:29:27;4.00;;;2.90;;
15256;SDS011;7731;50.720;6.912;2023-02-28T06:31:58;3.53;;;2.70;;
15256;SDS011;7731;50.720;6.912;2023-02-28T06:34:28;4.83;;;3.10;;
15256;SDS011;7731;50.720;6.912;2023-02-28T06:37:01;4.73;;;3.63;;
15256;SDS011;7731;50.720;6.912;2023-02-28T06:39:34;4.10;;;3.20;;
15256;SDS011;7731;50.720;6.912;2023-02-28T06:42:04;3.40;;;3.10;;
15256;SDS011;7731;50.720;6.912;2023-02-28T06:44:37;4.60;;;3.00;;
15256;SDS011;7731;50.720;6.912;2023-02-28T06:47:09;2.93;;;2.70;;
15256;SDS011;7731;50.720;6.912;2023-02-28T06:49:39;3.90;;;2.60;;
15256;SDS011;7731;50.720;6.912;2023-02-28T06:52:11;3.43;;;2.40;;
15256;SDS011;7731;50.720;6.912;2023-02-28T06:54:41;2.90;;;2.47;;
15256;SDS011;7731;50.720;6.912;2023-02-28T06:57:11;4.87;;;2.50;;
15256;SDS011;7731;50.720;6.912;2023-02-28T06:59:44;2.83;;;2.53;;
15256;SDS011;7731;50.720;6.912;2023-02-28T07:02:14;3.83;;;2.30;;
15256;SDS011;7731;50.720;6.912;2023-02-28T07:04:44;2.80;;;2.40;;
15256;SDS011;7731;50.720;6.912;2023-02-28T07:07:15;4.80;;;2.70;;
15256;SDS011;7731;50.720;6.912;2023-02-28T07:09:45;5.70;;;2.90;;
15256;SDS011;7731;50.720;6.912;2023-02-28T07:12:15;3.63;;;2.60;;
15256;SDS011;7731;50.720;6.912;2023-02-28T07:14:50;3.13;;;2.80;;
15256;SDS011;7731;50.720;6.912;2023-02-28T07:17:23;2.83;;;2.40;;
15256;SDS011;7731;50.720;6.912;2023-02-28T07:19:53;5.07;;;3.07;;
15256;SDS011;7731;50.720;6.912;2023-02-28T07:22:26;5.87;;;3.20;;
15256;SDS011;7731;50.720;6.912;2023-02-28T07:24:57;2.87;;;2.57;;
15256;SDS011;7731;50.720;6.912;2023-02-28T07:27:27;4.50;;;2.37;;
15256;SDS011;7731;50.720;6.912;2023-02-28T07:30:00;3.43;;;2.70;;
15256;SDS011;7731;50.720;6.912;2023-02-28T07:32:31;4.67;;;2.80;;
15256;SDS011;7731;50.720;6.912;2023-02-28T07:35:04;3.17;;;2.70;;
15256;SDS011;7731;50.720;6.912;2023-02-28T07:37:37;2.80;;;2.60;;
15256;SDS011;7731;50.720;6.912;2023-02-28T07:40:09;4.03;;;2.93;;
15256;SDS011;7731;50.720;6.912;2023-02-28T07:42:41;4.13;;;2.73;;
15256;SDS011;7731;50.720;6.912;2023-02-28T07:45:14;3.77;;;2.60;;
15256;SDS011;7731;50.720;6.912;2023-02-28T07:47:44;3.40;;;2.77;;
15256;SDS011;7731;50.720;6.912;2023-02-28T07:50:17;3.20;;;2.40;;
15256;SDS011;7731;50.720;6.912;2023-02-28T07:52:47;4.97;;;2.90;;
15256;SDS011;7731;50.720;6.912;2023-02-28T07:55:17;2.57;;;2.37;;
15256;SDS011;7731;50.720;6.912;2023-02-28T07:57:50;3.33;;;2.70;;
15256;SDS011;7731;50.720;6.912;2023-02-28T08:00:25;3.37;;;2.53;;
15256;SDS011;7731;50.720;6.912;2023-02-28T08:02:58;3.43;;;2.43;;
15256;SDS011;7731;50.720;6.912;2023-02-28T08:05:28;2.50;;;2.00;;
15256;SDS011;7731;50.720;6.912;2023-02-28T08:07:59;4.05;;;2.40;;
15256;SDS011;7731;50.720;6.912;2023-02-28T08:10:34;2.88;;;2.28;;
15256;SDS011;7731;50.720;6.912;2023-02-28T08:13:05;4.35;;;2.40;;
15256;SDS011;7731;50.720;6.912;2023-02-28T08:15:41;2.70;;;2.50;;
15256;SDS011;7731;50.720;6.912;2023-02-28T08:18:13;2.92;;;2.70;;
15256;SDS011;7731;50.720;6.912;2023-02-28T08:20:43;2.85;;;2.35;;
15256;SDS011;7731;50.720;6.912;2023-02-28T08:23:13;3.47;;;2.70;;
15256;SDS011;7731;50.720;6.912;2023-02-28T08:25:44;3.13;;;2.70;;
15256;SDS011;7731;50.720;6.912;2023-02-28T08:28:21;3.38;;;2.85;;
15256;SDS011;7731;50.720;6.912;2023-02-28T08:30:55;7.00;;;2.88;;
15256;SDS011;7731;50.720;6.912;2023-02-28T08:33:26;6.75;;;5.22;;
15256;SDS011;7731;50.720;6.912;2023-02-28T08:35:57;3.72;;;3.10;;
15256;SDS011;7731;50.720;6.912;2023-02-28T08:38:28;4.45;;;2.97;;
15256;SDS011;7731;50.720;6.912;2023-02-28T08:40:58;3.30;;;2.90;;
15256;SDS011;7731;50.720;6.912;2023-02-28T08:43:30;9.48;;;8.45;;
15256;SDS011;7731;50.720;6.912;2023-02-28T08:46:03;6.63;;;5.72;;
15256;SDS011;7731;50.720;6.912;2023-02-28T08:48:34;3.92;;;3.22;;
15256;SDS011;7731;50.720;6.912;2023-02-28T08:51:07;4.75;;;3.25;;
15256;SDS011;7731;50.720;6.912;2023-02-28T08:53:40;3.10;;;2.80;;
15256;SDS011;7731;50.720;6.912;2023-02-28T08:56:12;4.00;;;3.60;;
15256;SDS011;7731;50.720;6.912;2023-02-28T08:58:44;3.70;;;3.33;;
15256;SDS011;7731;50.720;6.912;2023-02-28T09:01:19;3.05;;;2.65;;
15256;SDS011;7731;50.720;6.912;2023-02-28T09:03:57;3.95;;;2.92;;
15256;SDS011;7731;50.720;6.912;2023-02-28T09:06:30;4.75;;;2.70;;
15256;SDS011;7731;50.720;6.912;2023-02-28T09:09:02;4.18;;;2.80;;
15256;SDS011;7731;50.720;6.912;2023-02-28T09:11:34;2.70;;;2.50;;
15256;SDS011;7731;50.720;6.912;2023-02-28T09:14:05;4.20;;;2.42;;
15256;SDS011;7731;50.720;6.912;2023-02-28T09:16:40;2.63;;;2.42;;
15256;SDS011;7731;50.720;6.912;2023-02-28T09:19:10;4.07;;;2.53;;
15256;SDS011;7731;50.720;6.912;2023-02-28T09:21:41;4.53;;;2.53;;
15256;SDS011;7731;50.720;6.912;2023-02-28T09:24:11;5.88;;;2.45;;
15256;SDS011;7731;50.720;6.912;2023-02-28T09:26:41;2.30;;;1.90;;
15256;SDS011;7731;50.720;6.912;2023-02-28T09:29:29;2.50;;;2.15;;
15256;SDS011;7731;50.720;6.912;2023-02-28T09:32:07;2.83;;;2.20;;
15256;SDS011;7731;50.720;6.912;2023-02-28T09:34:37;5.65;;;2.08;;
15256;SDS011;7731;50.720;6.912;2023-02-28T09:37:08;2.75;;;2.10;;
15256;SDS011;7731;50.720;6.912;2023-02-28T09:39:38;3.97;;;2.45;;
15256;SDS011;7731;50.720;6.912;2023-02-28T09:42:11;2.33;;;1.92;;
15256;SDS011;7731;50.720;6.912;2023-02-28T09:44:54;1.88;;;1.70;;
15256;SDS011;7731;50.720;6.912;2023-02-28T09:47:31;2.97;;;1.50;;
15256;SDS011;7731;50.720;6.912;2023-02-28T09:50:06;2.25;;;1.90;;
15256;SDS011;7731;50.720;6.912;2023-02-28T09:52:51;2.78;;;2.35;;
15256;SDS011;7731;50.720;6.912;2023-02-28T09:55:26;2.00;;;1.80;;
15256;SDS011;7731;50.720;6.912;2023-02-28T09:58:15;2.80;;;1.80;;
15256;SDS011;7731;50.720;6.912;2023-02-28T10:00:58;3.63;;;2.50;;
15256;SDS011;7731;50.720;6.912;2023-02-28T10:03:38;2.65;;;1.80;;
15256;SDS011;7731;50.720;6.912;2023-02-28T10:06:17;3.55;;;2.53;;
15256;SDS011;7731;50.720;6.912;2023-02-28T10:08:52;3.28;;;2.00;;
15256;SDS011;7731;50.720;6.912;2023-02-28T10:11:32;1.92;;;1.77;;
15256;SDS011;7731;50.720;6.912;2023-02-28T10:14:07;3.28;;;2.22;;
15256;SDS011;7731;50.720;6.912;2023-02-28T10:16:46;2.15;;;1.95;;
15256;SDS011;7731;50.720;6.912;2023-02-28T10:19:27;3.85;;;2.83;;
15256;SDS011;7731;50.720;6.912;2023-02-28T10:22:10;2.47;;;2.00;;
15256;SDS011;7731;50.720;6.912;2023-02-28T10:24:45;2.90;;;2.30;;
15256;SDS011;7731;50.720;6.912;2023-02-28T10:27:18;3.78;;;2.40;;
15256;SDS011;7731;50.720;6.912;2023-02-28T10:29:51;3.00;;;2.30;;
15256;SDS011;7731;50.720;6.912;2023-02-28T10:32:24;2.38;;;1.98;;
15256;SDS011;7731;50.720;6.912;2023-02-28T10:35:01;2.28;;;1.92;;
15256;SDS011;7731;50.720;6.912;2023-02-28T10:37:45;2.53;;;1.80;;
15256;SDS011;7731;50.720;6.912;2023-02-28T10:40:25;2.88;;;2.00;;
15256;SDS011;7731;50.720;6.912;2023-02-28T10:43:04;4.82;;;2.33;;
15256;SDS011;7731;50.720;6.912;2023-02-28T10:45:58;1.98;;;1.83;;
15256;SDS011;7731;50.720;6.912;2023-02-28T10:48:34;2.58;;;2.13;;
15256;SDS011;7731;50.720;6.912;2023-02-28T10:51:14;2.28;;;2.03;;
15256;SDS011;7731;50.720;6.912;2023-02-28T10:53:48;3.67;;;2.08;;
15256;SDS011;7731;50.720;6.912;2023-02-28T10:56:29;2.72;;;2.10;;
15256;SDS011;7731;50.720;6.912;2023-02-28T10:59:02;2.78;;;2.13;;
15256;SDS011;7731;50.720;6.912;2023-02-28T11:01:55;2.47;;;1.95;;
15256;SDS011;7731;50.720;6.912;2023-02-28T11:04:33;2.33;;;2.05;;
15256;SDS011;7731;50.720;6.912;2023-02-28T11:07:17;3.17;;;2.33;;
15256;SDS011;7731;50.720;6.912;2023-02-28T11:09:53;2.83;;;2.13;;
15256;SDS011;7731;50.720;6.912;2023-02-28T11:12:28;3.40;;;2.70;;
15256;SDS011;7731;50.720;6.912;2023-02-28T11:15:21;5.28;;;2.67;;
15256;SDS011;7731;50.720;6.912;2023-02-28T11:17:56;2.10;;;1.90;;
15256;SDS011;7731;50.720;6.912;2023-02-28T11:20:30;3.35;;;2.20;;
15256;SDS011;7731;50.720;6.912;2023-02-28T11:23:10;2.50;;;1.98;;
15256;SDS011;7731;50.720;6.912;2023-02-28T11:25:47;3.30;;;1.70;;
15256;SDS011;7731;50.720;6.912;2023-02-28T11:28:25;2.23;;;1.70;;
15256;SDS011;7731;50.720;6.912;2023-02-28T11:31:04;2.15;;;1.90;;
15256;SDS011;7731;50.720;6.912;2023-02-28T11:33:49;3.17;;;1.90;;
15256;SDS011;7731;50.720;6.912;2023-02-28T11:36:23;3.45;;;2.45;;
15256;SDS011;7731;50.720;6.912;2023-02-28T11:38:59;2.72;;;2.08;;
15256;SDS011;7731;50.720;6.912;2023-02-28T11:41:45;2.28;;;2.03;;
15256;SDS011;7731;50.720;6.912;2023-02-28T11:44:43;2.83;;;2.25;;
15256;SDS011;7731;50.720;6.912;2023-02-28T11:47:32;2.60;;;2.10;;
15256;SDS011;7731;50.720;6.912;2023-02-28T11:50:15;3.05;;;2.30;;
15256;SDS011;7731;50.720;6.912;2023-02-28T11:53:00;4.30;;;2.22;;
15256;SDS011;7731;50.720;6.912;2023-02-28T11:55:43;2.20;;;1.98;;
15256;SDS011;7731;50.720;6.912;2023-02-28T11:58:27;3.72;;;2.25;;
15256;SDS011;7731;50.720;6.912;2023-02-28T12:01:22;3.45;;;2.25;;
15256;SDS011;7731;50.720;6.912;2023-02-28T12:04:56;2.75;;;2.13;;
15256;SDS011;7731;50.720;6.912;2023-02-28T12:08:03;3.65;;;2.20;;
15256;SDS011;7731;50.720;6.912;2023-02-28T12:11:05;2.20;;;2.00;;
15256;SDS011;7731;50.720;6.912;2023-02-28T12:13:46;2.93;;;2.10;;
15256;SDS011;7731;50.720;6.912;2023-02-28T12:16:45;2.87;;;2.07;;
15256;SDS011;7731;50.720;6.912;2023-02-28T12:19:41;2.60;;;2.40;;
15256;SDS011;7731;50.720;6.912;2023-02-28T12:22:41;2.87;;;2.00;;
15256;SDS011;7731;50.720;6.912;2023-02-28T12:25:32;2.80;;;2.50;;
15256;SDS011;7731;50.720;6.912;2023-02-28T12:28:25;9.97;;;6.43;;
15256;SDS011;7731;50.720;6.912;2023-02-28T12:31:04;8.00;;;5.37;;
15256;SDS011;7731;50.720;6.912;2023-02-28T12:33:45;3.57;;;2.10;;
15256;SDS011;7731;50.720;6.912;2023-02-28T12:36:25;3.40;;;2.20;;
15256;SDS011;7731;50.720;6.912;2023-02-28T12:39:00;5.53;;;2.33;;
15256;SDS011;7731;50.720;6.912;2023-02-28T12:41:39;2.50;;;1.80;;
15256;SDS011;7731;50.720;6.912;2023-02-28T12:44:26;2.47;;;2.27;;
15256;SDS011;7731;50.720;6.912;2023-02-28T12:47:04;4.77;;;2.10;;
15256;SDS011;7731;50.720;6.912;2023-02-28T12:49:44;2.30;;;2.10;;
15256;SDS011;7731;50.720;6.912;2023-02-28T12:52:20;2.70;;;2.13;;
15256;SDS011;7731;50.720;6.912;2023-02-28T12:55:00;3.47;;;2.30;;
15256;SDS011;7731;50.720;6.912;2023-02-28T12:57:47;4.03;;;2.53;;
15256;SDS011;7731;50.720;6.912;2023-02-28T13:00:32;2.30;;;2.10;;
15256;SDS011;7731;50.720;6.912;2023-02-28T13:03:11;3.03;;;2.40;;
15256;SDS011;7731;50.720;6.912;2023-02-28T13:09:19;2.80;;;2.53;;
15256;SDS011;7731;50.720;6.912;2023-02-28T13:11:50;4.43;;;2.47;;
15256;SDS011;7731;50.720;6.912;2023-02-28T13:14:28;2.40;;;2.20;;
15256;SDS011;7731;50.720;6.912;2023-02-28T13:17:14;4.53;;;2.20;;
15256;SDS011;7731;50.720;6.912;2023-02-28T13:19:55;2.60;;;2.00;;
15256;SDS011;7731;50.720;6.912;2023-02-28T13:22:37;5.07;;;2.50;;
15256;SDS011;7731;50.720;6.912;2023-02-28T13:38:24;2.87;;;2.20;;
15256;SDS011;7731;50.720;6.912;2023-02-28T13:44:14;3.83;;;2.50;;
15256;SDS011;7731;50.720;6.912;2023-02-28T13:52:56;2.20;;;2.00;;
15256;SDS011;7731;50.720;6.912;2023-02-28T13:56:01;2.63;;;2.27;;
15256;SDS011;7731;50.720;6.912;2023-02-28T13:58:51;2.73;;;2.53;;
15256;SDS011;7731;50.720;6.912;2023-02-28T14:01:31;4.60;;;2.70;;
15256;SDS011;7731;50.720;6.912;2023-02-28T14:07:30;3.37;;;2.57;;
15256;SDS011;7731;50.720;6.912;2023-02-28T14:10:08;2.87;;;2.23;;
15256;SDS011;7731;50.720;6.912;2023-02-28T14:12:59;5.70;;;2.57;;
15256;SDS011;7731;50.720;6.912;2023-02-28T14:15:54;2.37;;;2.10;;
15256;SDS011;7731;50.720;6.912;2023-02-28T14:18:28;3.07;;;2.70;;
15256;SDS011;7731;50.720;6.912;2023-02-28T14:21:19;6.30;;;3.27;;
15256;SDS011;7731;50.720;6.912;2023-02-28T14:24:03;4.17;;;2.90;;
15256;SDS011;7731;50.720;6.912;2023-02-28T14:27:28;3.53;;;2.87;;
15256;SDS011;7731;50.720;6.912;2023-02-28T14:30:20;3.00;;;2.60;;
15256;SDS011;7731;50.720;6.912;2023-02-28T14:36:30;3.87;;;2.60;;
15256;SDS011;7731;50.720;6.912;2023-02-28T14:39:05;3.67;;;2.77;;
15256;SDS011;7731;50.720;6.912;2023-02-28T14:41:44;4.40;;;2.60;;
15256;SDS011;7731;50.720;6.912;2023-02-28T14:44:17;4.33;;;2.93;;
15256;SDS011;7731;50.720;6.912;2023-02-28T14:46:50;2.87;;;2.57;;
15256;SDS011;7731;50.720;6.912;2023-02-28T14:49:24;3.00;;;2.47;;
15256;SDS011;7731;50.720;6.912;2023-02-28T14:52:07;4.03;;;3.03;;
15256;SDS011;7731;50.720;6.912;2023-02-28T14:54:52;3.57;;;2.70;;
15256;SDS011;7731;50.720;6.912;2023-02-28T14:57:27;2.67;;;2.47;;
15256;SDS011;7731;50.720;6.912;2023-02-28T15:00:03;2.97;;;2.63;;
15256;SDS011;7731;50.720;6.912;2023-02-28T15:02:42;3.23;;;2.40;;
15256;SDS011;7731;50.720;6.912;2023-02-28T15:05:23;4.60;;;2.67;;
15256;SDS011;7731;50.720;6.912;2023-02-28T15:08:03;4.23;;;2.80;;
15256;SDS011;7731;50.720;6.912;2023-02-28T15:10:40;5.67;;;2.80;;
15256;SDS011;7731;50.720;6.912;2023-02-28T15:13:15;3.03;;;2.73;;
15256;SDS011;7731;50.720;6.912;2023-02-28T15:15:47;2.70;;;2.50;;
15256;SDS011;7731;50.720;6.912;2023-02-28T15:18:40;3.43;;;2.70;;
15256;SDS011;7731;50.720;6.912;2023-02-28T15:21:19;3.40;;;2.87;;
15256;SDS011;7731;50.720;6.912;2023-02-28T15:23:58;2.93;;;2.60;;
15256;SDS011;7731;50.720;6.912;2023-02-28T15:26:37;4.20;;;2.80;;
15256;SDS011;7731;50.720;6.912;2023-02-28T15:29:13;3.37;;;2.70;;
15256;SDS011;7731;50.720;6.912;2023-02-28T15:31:49;3.90;;;3.03;;
15256;SDS011;7731;50.720;6.912;2023-02-28T15:34:27;3.23;;;2.93;;
15256;SDS011;7731;50.720;6.912;2023-02-28T15:40:04;3.97;;;3.13;;
15256;SDS011;7731;50.720;6.912;2023-02-28T15:42:42;3.73;;;2.80;;
15256;SDS011;7731;50.720;6.912;2023-02-28T15:45:30;4.87;;;3.23;;
15256;SDS011;7731;50.720;6.912;2023-02-28T15:48:13;3.00;;;2.70;;
15256;SDS011;7731;50.720;6.912;2023-02-28T15:50:51;4.50;;;2.67;;
15256;SDS011;7731;50.720;6.912;2023-02-28T15:53:25;3.83;;;2.97;;
15256;SDS011;7731;50.720;6.912;2023-02-28T15:56:03;3.93;;;3.00;;
15256;SDS011;7731;50.720;6.912;2023-02-28T15:58:49;4.70;;;2.93;;
15256;SDS011;7731;50.720;6.912;2023-02-28T16:01:24;4.90;;;3.33;;
15256;SDS011;7731;50.720;6.912;2023-02-28T16:04:01;4.33;;;3.30;;
15256;SDS011;7731;50.720;6.912;2023-02-28T16:06:36;4.20;;;2.97;;
15256;SDS011;7731;50.720;6.912;2023-02-28T16:09:11;5.43;;;3.20;;
15256;SDS011;7731;50.720;6.912;2023-02-28T16:11:47;3.73;;;3.00;;
15256;SDS011;7731;50.720;6.912;2023-02-28T16:14:20;5.67;;;3.50;;
15256;SDS011;7731;50.720;6.912;2023-02-28T16:16:54;3.43;;;2.97;;
15256;SDS011;7731;50.720;6.912;2023-02-28T16:19:32;3.63;;;3.00;;
15256;SDS011;7731;50.720;6.912;2023-02-28T16:22:03;6.77;;;3.60;;
15256;SDS011;7731;50.720;6.912;2023-02-28T16:24:33;4.53;;;3.17;;
15256;SDS011;7731;50.720;6.912;2023-02-28T16:27:09;4.63;;;3.37;;
15256;SDS011;7731;50.720;6.912;2023-02-28T16:29:49;3.43;;;3.03;;
15256;SDS011;7731;50.720;6.912;2023-02-28T16:32:19;4.00;;;2.90;;
15256;SDS011;7731;50.720;6.912;2023-02-28T16:34:50;3.97;;;2.93;;
15256;SDS011;7731;50.720;6.912;2023-02-28T16:37:20;3.13;;;2.83;;
15256;SDS011;7731;50.720;6.912;2023-02-28T16:39:50;5.00;;;3.07;;
15256;SDS011;7731;50.720;6.912;2023-02-28T16:42:23;4.03;;;3.00;;